createdAt,value
2018-08-16T00:00:50.105Z,98.00
2018-08-16T00:03:18.762Z,98.10
2018-08-16T00:05:47.416Z,98.20
2018-08-16T00:08:16.030Z,98.10
2018-08-16T00:10:44.733Z,98.10
2018-08-16T00:13:13.374Z,98.20
2018-08-16T00:15:42.113Z,98.20
2018-08-16T00:18:10.767Z,98.40
2018-08-16T00:20:39.372Z,98.90
2018-08-16T00:23:08.030Z,99.40
2018-08-16T00:25:36.626Z,99.80
2018-08-16T00:28:05.622Z,99.70
2018-08-16T00:30:34.382Z,99.90
2018-08-16T00:33:03.113Z,99.80
2018-08-16T00:35:31.716Z,99.60
2018-08-16T00:38:00.378Z,99.20
2018-08-16T00:40:29.301Z,98.50
2018-08-16T00:42:57.911Z,98.40
2018-08-16T00:45:26.544Z,98.60
2018-08-16T00:47:55.179Z,98.60
2018-08-16T00:50:23.788Z,98.80
2018-08-16T00:52:52.473Z,98.90
2018-08-16T00:55:21.156Z,98.70
2018-08-16T00:57:49.844Z,98.60
2018-08-16T01:00:18.530Z,98.40
2018-08-16T01:02:47.333Z,98.40
2018-08-16T01:05:16.045Z,98.60
2018-08-16T01:07:44.662Z,98.60
2018-08-16T01:10:14.188Z,98.70
2018-08-16T01:12:43.767Z,99.20
2018-08-16T01:15:14.292Z,99.30
2018-08-16T01:17:43.173Z,99.60
2018-08-16T01:20:11.864Z,99.40
2018-08-16T01:22:40.683Z,99.60
2018-08-16T01:25:10.940Z,99.80
2018-08-16T01:27:39.643Z,99.60
2018-08-16T01:30:09.362Z,99.00
2018-08-16T01:32:38.041Z,98.80
2018-08-16T01:35:07.687Z,98.70
2018-08-16T01:37:36.602Z,98.70
2018-08-16T01:40:06.293Z,98.80
2018-08-16T01:42:35.076Z,98.70
2018-08-16T01:45:03.824Z,98.90
2018-08-16T01:47:32.515Z,98.70
2018-08-16T01:50:01.216Z,98.60
2018-08-16T01:52:29.880Z,98.60
2018-08-16T01:54:58.577Z,99.20
2018-08-16T01:57:27.199Z,99.10
2018-08-16T01:59:55.850Z,98.90
2018-08-16T02:02:24.565Z,98.80
2018-08-16T02:04:53.162Z,99.90
2018-08-16T02:07:21.873Z,99.80
2018-08-16T02:09:50.542Z,99.50
2018-08-16T02:12:19.196Z,99.30
2018-08-16T02:14:47.837Z,99.20
2018-08-16T02:17:16.509Z,99.20
2018-08-16T02:19:45.105Z,99.20
2018-08-16T02:22:13.786Z,99.10
2018-08-16T02:24:42.393Z,99.10
2018-08-16T02:27:11.054Z,99.10
2018-08-16T02:29:39.649Z,99.00
2018-08-16T02:32:08.403Z,98.90
2018-08-16T02:34:37.095Z,99.00
2018-08-16T02:37:05.943Z,99.00
2018-08-16T02:39:34.605Z,99.50
2018-08-16T02:42:03.291Z,99.20
2018-08-16T02:44:31.913Z,99.30
2018-08-16T02:47:00.635Z,99.50
2018-08-16T02:49:29.284Z,99.90
2018-08-16T02:51:57.949Z,99.90
2018-08-16T02:54:26.599Z,99.90
2018-08-16T02:56:55.231Z,99.90
2018-08-16T02:59:23.824Z,99.90
2018-08-16T03:01:52.494Z,99.80
2018-08-16T03:04:21.194Z,99.60
2018-08-16T03:06:49.966Z,99.50
2018-08-16T03:09:18.626Z,99.50
2018-08-16T03:11:47.288Z,99.60
2018-08-16T03:14:16.001Z,99.60
2018-08-16T03:16:44.612Z,99.50
2018-08-16T03:19:13.312Z,99.70
2018-08-16T03:21:41.964Z,99.80
2018-08-16T03:24:10.556Z,99.50
2018-08-16T03:26:39.231Z,99.80
2018-08-16T03:29:07.852Z,99.90
2018-08-16T03:31:36.630Z,99.90
2018-08-16T03:34:05.350Z,99.70
2018-08-16T03:36:34.104Z,99.80
2018-08-16T03:39:02.834Z,99.80
2018-08-16T03:41:31.472Z,99.90
2018-08-16T03:44:00.121Z,99.90
2018-08-16T03:46:28.727Z,99.90
2018-08-16T03:48:57.389Z,99.90
2018-08-16T03:51:25.994Z,99.90
2018-08-16T03:53:54.643Z,99.90
2018-08-16T03:56:23.321Z,99.90
2018-08-16T03:58:51.980Z,99.90
2018-08-16T04:01:20.587Z,99.90
2018-08-16T04:03:49.256Z,99.90
2018-08-16T04:06:17.896Z,99.90
2018-08-16T04:08:46.558Z,99.90
2018-08-16T04:11:15.156Z,99.90
2018-08-16T04:13:43.838Z,99.70
2018-08-16T04:16:12.498Z,99.90
2018-08-16T04:18:41.108Z,99.70
2018-08-16T04:21:09.737Z,99.90
2018-08-16T04:23:38.429Z,99.90
2018-08-16T04:26:07.028Z,99.90
2018-08-16T04:28:35.792Z,99.90
2018-08-16T04:31:04.450Z,99.90
2018-08-16T04:33:33.049Z,99.90
2018-08-16T04:36:01.768Z,99.90
2018-08-16T04:38:30.391Z,99.90
2018-08-16T04:40:59.057Z,99.90
2018-08-16T04:43:27.657Z,99.90
2018-08-16T04:45:56.330Z,99.90
2018-08-16T04:48:24.936Z,99.90
2018-08-16T04:50:53.590Z,99.90
2018-08-16T04:53:22.210Z,99.90
2018-08-16T04:55:50.941Z,99.90
2018-08-16T04:58:19.546Z,99.80
2018-08-16T05:00:48.192Z,99.60
2018-08-16T05:03:16.937Z,99.70
2018-08-16T05:05:45.582Z,99.90
2018-08-16T05:08:14.253Z,99.90
2018-08-16T05:10:42.962Z,99.90
2018-08-16T05:13:11.630Z,99.90
2018-08-16T05:15:40.228Z,99.90
2018-08-16T05:18:08.913Z,99.90
2018-08-16T05:20:37.558Z,99.90
2018-08-16T05:23:06.270Z,99.90
2018-08-16T05:25:35.033Z,99.90
2018-08-16T05:28:03.697Z,99.90
2018-08-16T05:30:32.362Z,99.90
2018-08-16T05:33:01.088Z,99.90
2018-08-16T05:35:30.379Z,99.90
2018-08-16T05:37:59.040Z,99.90
2018-08-16T05:40:27.660Z,99.90
2018-08-16T05:42:56.427Z,99.90
2018-08-16T05:45:25.115Z,99.60
2018-08-16T05:47:53.746Z,99.80
2018-08-16T05:50:22.409Z,99.90
2018-08-16T05:52:51.075Z,99.90
2018-08-16T05:55:19.805Z,99.90
2018-08-16T05:57:48.466Z,99.90
2018-08-16T06:00:17.130Z,99.20
2018-08-16T06:02:45.867Z,99.80
2018-08-16T06:05:14.554Z,99.90
2018-08-16T06:07:43.250Z,99.20
2018-08-16T06:10:11.902Z,98.60
2018-08-16T06:12:40.588Z,97.70
2018-08-16T06:15:10.148Z,97.90
2018-08-16T06:17:39.112Z,97.10
2018-08-16T06:20:09.870Z,97.10
2018-08-16T06:22:38.713Z,96.50
2018-08-16T06:25:09.295Z,95.80
2018-08-16T06:27:37.941Z,95.00
2018-08-16T06:30:11.052Z,94.90
2018-08-16T06:32:39.747Z,94.00
2018-08-16T06:35:08.411Z,93.00
2018-08-16T06:37:37.072Z,92.70
2018-08-16T06:40:07.773Z,92.30
2018-08-16T06:42:36.586Z,91.70
2018-08-16T06:45:06.113Z,90.50
2018-08-16T06:47:34.825Z,88.90
2018-08-16T06:50:03.531Z,87.10
2018-08-16T06:52:32.244Z,83.20
2018-08-16T06:55:01.359Z,81.10
2018-08-16T06:57:30.070Z,77.30
2018-08-16T06:59:58.766Z,73.50
2018-08-16T07:02:27.935Z,72.40
2018-08-16T07:04:57.104Z,67.50
2018-08-16T07:07:25.839Z,67.00
2018-08-16T07:09:54.521Z,65.50
2018-08-16T07:12:23.206Z,64.60
2018-08-16T07:14:51.903Z,63.30
2018-08-16T07:17:20.552Z,65.80
2018-08-16T07:19:49.229Z,65.00
2018-08-16T07:22:17.857Z,65.20
2018-08-16T07:24:46.594Z,63.50
2018-08-16T07:27:15.267Z,61.60
2018-08-16T07:29:43.922Z,60.20
2018-08-16T07:32:12.624Z,59.40
2018-08-16T07:34:41.254Z,59.60
2018-08-16T07:37:09.949Z,59.50
2018-08-16T07:39:38.626Z,58.90
2018-08-16T07:42:07.559Z,59.80
2018-08-16T07:44:36.572Z,57.60
2018-08-16T07:47:05.649Z,57.30
2018-08-16T07:49:34.592Z,56.10
2018-08-16T07:52:03.693Z,57.00
2018-08-16T07:54:32.332Z,56.80
2018-08-16T07:57:01.497Z,54.50
2018-08-16T07:59:30.148Z,54.80
2018-08-16T08:01:58.809Z,53.30
2018-08-16T08:04:27.536Z,54.40
2018-08-16T08:06:56.189Z,53.80
2018-08-16T08:09:25.029Z,54.50
2018-08-16T08:11:53.560Z,53.90
2018-08-16T08:14:22.352Z,55.80
2018-08-16T08:16:51.419Z,53.80
2018-08-16T08:19:20.190Z,53.40
2018-08-16T08:21:48.849Z,52.30
2018-08-16T08:24:17.484Z,51.40
2018-08-16T08:26:46.159Z,52.70
2018-08-16T08:29:14.908Z,51.80
2018-08-16T08:31:43.656Z,52.60
2018-08-16T08:34:12.249Z,54.50
2018-08-16T08:36:52.236Z,55.30
2018-08-16T08:39:20.851Z,57.40
2018-08-16T08:41:49.485Z,57.80
2018-08-16T08:44:20.780Z,56.10
2018-08-16T08:46:50.701Z,55.60
2018-08-16T08:49:19.843Z,54.70
2018-08-16T08:51:49.570Z,54.70
2018-08-16T08:54:47.619Z,54.10
2018-08-16T08:57:27.412Z,55.40
2018-08-16T08:59:56.148Z,55.60
2018-08-16T09:02:24.917Z,56.60
2018-08-16T09:04:53.692Z,55.20
2018-08-16T09:07:23.021Z,53.90
2018-08-16T09:11:06.257Z,53.00
2018-08-16T09:13:46.285Z,52.60
2018-08-16T09:16:18.415Z,51.00
2018-08-16T09:18:47.106Z,51.60
2018-08-16T09:21:16.320Z,53.20
2018-08-16T09:23:45.069Z,53.70
2018-08-16T09:26:19.296Z,54.10
2018-08-16T09:28:47.944Z,54.20
2018-08-16T09:31:27.982Z,54.00
2018-08-16T09:34:07.482Z,54.70
2018-08-16T09:36:36.262Z,54.00
2018-08-16T09:39:07.149Z,53.80
2018-08-16T09:41:36.056Z,53.80
2018-08-16T09:44:04.890Z,53.80
2018-08-16T09:46:58.782Z,53.70
2018-08-16T09:49:28.254Z,53.70
2018-08-16T09:51:57.059Z,52.50
2018-08-16T09:54:25.775Z,52.30
2018-08-16T09:56:55.241Z,52.10
2018-08-16T09:59:23.941Z,52.20
2018-08-16T10:01:52.674Z,52.20
2018-08-16T10:04:21.394Z,52.70
2018-08-16T10:06:50.146Z,53.30
2018-08-16T10:09:21.025Z,53.40
2018-08-16T10:11:50.592Z,53.10
2018-08-16T10:14:19.664Z,53.60
2018-08-16T10:16:48.416Z,54.40
2018-08-16T10:19:17.162Z,55.50
2018-08-16T10:21:46.004Z,54.00
2018-08-16T10:24:14.701Z,53.80
2018-08-16T10:26:43.410Z,53.00
2018-08-16T10:29:12.486Z,53.50
2018-08-16T10:31:41.638Z,53.80
2018-08-16T10:34:10.331Z,52.80
2018-08-16T10:36:39.089Z,53.20
2018-08-16T10:39:10.412Z,53.00
2018-08-16T10:41:39.162Z,53.60
2018-08-16T10:44:07.991Z,54.60
2018-08-16T10:46:36.822Z,55.40
2018-08-16T10:49:05.549Z,55.10
2018-08-16T10:51:34.325Z,55.80
2018-08-16T10:54:03.048Z,56.60
2018-08-16T10:56:31.744Z,55.90
2018-08-16T10:59:00.483Z,55.60
2018-08-16T11:01:29.330Z,56.20
2018-08-16T11:03:57.822Z,56.20
2018-08-16T11:06:26.515Z,56.50
2018-08-16T11:08:55.149Z,56.40
2018-08-16T11:11:23.816Z,56.60
2018-08-16T11:13:52.412Z,56.30
2018-08-16T11:16:21.064Z,56.50
2018-08-16T11:18:49.682Z,56.30
2018-08-16T11:21:18.349Z,56.80
2018-08-16T11:23:47.049Z,56.00
2018-08-16T11:26:15.697Z,55.80
2018-08-16T11:28:44.336Z,56.70
2018-08-16T11:31:13.013Z,56.30
2018-08-16T11:33:41.630Z,56.10
2018-08-16T11:36:10.301Z,56.30
2018-08-16T11:38:38.915Z,56.00
2018-08-16T11:41:07.525Z,56.50
2018-08-16T11:43:36.215Z,56.60
2018-08-16T11:46:04.838Z,54.70
2018-08-16T11:48:33.525Z,54.10
2018-08-16T11:51:02.125Z,55.10
2018-08-16T11:53:30.779Z,53.60
2018-08-16T11:55:59.376Z,55.20
2018-08-16T11:58:34.654Z,55.00
2018-08-16T12:01:03.644Z,54.50
2018-08-16T12:03:32.457Z,54.40
2018-08-16T12:06:01.149Z,54.70
2018-08-16T12:08:29.793Z,55.30
2018-08-16T12:10:58.645Z,53.90
2018-08-16T12:13:27.293Z,54.00
2018-08-16T12:15:56.006Z,53.50
2018-08-16T12:18:24.764Z,52.80
2018-08-16T12:20:53.410Z,53.30
2018-08-16T12:23:22.126Z,53.60
2018-08-16T12:25:51.597Z,53.10
2018-08-16T12:28:20.254Z,53.10
2018-08-16T12:30:49.140Z,52.70
2018-08-16T12:33:17.998Z,52.80
2018-08-16T12:35:46.589Z,53.10
2018-08-16T12:38:15.553Z,53.30
2018-08-16T12:40:44.465Z,52.20
2018-08-16T12:43:13.085Z,52.50
2018-08-16T12:45:42.163Z,53.20
2018-08-16T12:48:11.113Z,52.60
2018-08-16T12:50:39.747Z,52.30
2018-08-16T12:53:08.454Z,53.00
2018-08-16T12:55:37.126Z,52.90
2018-08-16T12:58:05.851Z,52.40
2018-08-16T13:00:34.521Z,52.10
2018-08-16T13:03:03.128Z,52.30
2018-08-16T13:05:31.767Z,52.30
2018-08-16T13:08:00.426Z,52.10
2018-08-16T13:10:29.074Z,51.70
2018-08-16T13:12:57.743Z,52.60
2018-08-16T13:15:26.353Z,51.70
2018-08-16T13:17:54.982Z,50.80
2018-08-16T13:20:23.612Z,50.30
2018-08-16T13:22:52.248Z,50.70
2018-08-16T13:25:20.916Z,50.50
2018-08-16T13:27:49.600Z,50.30
2018-08-16T13:30:18.221Z,51.00
2018-08-16T13:32:46.852Z,50.80
2018-08-16T13:35:15.472Z,50.30
2018-08-16T13:37:44.096Z,50.60
2018-08-16T13:40:12.747Z,51.10
2018-08-16T13:42:41.463Z,51.00
2018-08-16T13:45:10.096Z,50.80
2018-08-16T13:47:38.768Z,51.20
2018-08-16T13:50:07.370Z,50.70
2018-08-16T13:52:36.113Z,51.30
2018-08-16T13:55:04.777Z,50.60
2018-08-16T13:57:33.395Z,49.70
2018-08-16T14:00:02.037Z,50.30
2018-08-16T14:02:30.683Z,50.70
2018-08-16T14:04:59.327Z,50.90
2018-08-16T14:07:27.958Z,50.50
2018-08-16T14:09:56.591Z,50.40
2018-08-16T14:12:25.270Z,51.60
2018-08-16T14:14:53.862Z,50.10
2018-08-16T14:17:22.557Z,50.80
2018-08-16T14:19:51.186Z,50.40
2018-08-16T14:22:19.904Z,51.60
2018-08-16T14:24:48.557Z,51.60
2018-08-16T14:27:17.196Z,50.40
2018-08-16T14:29:45.813Z,51.00
2018-08-16T14:32:14.536Z,50.80
2018-08-16T14:34:43.138Z,50.70
2018-08-16T14:37:11.822Z,50.30
2018-08-16T14:39:40.536Z,50.10
2018-08-16T14:42:09.257Z,50.10
2018-08-16T14:44:37.900Z,50.40
2018-08-16T14:47:06.618Z,50.10
2018-08-16T14:49:35.364Z,50.00
2018-08-16T14:52:04.197Z,50.40
2018-08-16T14:54:32.843Z,50.00
2018-08-16T14:57:01.508Z,49.60
2018-08-16T14:59:30.183Z,49.40
2018-08-16T15:01:58.837Z,48.80
2018-08-16T15:04:27.469Z,48.40
2018-08-16T15:06:56.124Z,48.00
2018-08-16T15:09:24.754Z,48.80
2018-08-16T15:11:53.397Z,49.00
2018-08-16T15:14:22.073Z,49.00
2018-08-16T15:16:50.766Z,49.30
2018-08-16T15:19:19.478Z,48.80
2018-08-16T15:21:48.203Z,48.50
2018-08-16T15:24:18.828Z,47.70
2018-08-16T15:26:47.912Z,48.50
2018-08-16T15:29:16.737Z,47.90
2018-08-16T15:31:45.426Z,48.00
2018-08-16T15:34:14.061Z,47.70
2018-08-16T15:36:42.738Z,46.90
2018-08-16T15:39:12.251Z,47.20
2018-08-16T15:41:40.913Z,46.80
2018-08-16T15:44:10.406Z,47.50
2018-08-16T15:46:39.241Z,47.10
2018-08-16T15:49:07.914Z,46.80
2018-08-16T15:51:36.579Z,46.10
2018-08-16T15:54:05.257Z,45.10
2018-08-16T15:56:33.913Z,45.20
2018-08-16T15:59:02.548Z,46.40
2018-08-16T16:01:31.242Z,46.70
2018-08-16T16:03:59.842Z,46.70
2018-08-16T16:06:28.531Z,47.00
2018-08-16T16:08:57.166Z,47.30
2018-08-16T16:11:25.802Z,47.70
2018-08-16T16:13:54.474Z,47.40
2018-08-16T16:16:23.137Z,47.30
2018-08-16T16:18:51.813Z,47.10
2018-08-16T16:21:20.464Z,47.70
2018-08-16T16:23:49.067Z,48.00
2018-08-16T16:26:17.732Z,47.10
2018-08-16T16:28:46.332Z,47.40
2018-08-16T16:31:15.010Z,48.00
2018-08-16T16:33:43.633Z,48.30
2018-08-16T16:36:14.246Z,47.80
2018-08-16T16:38:42.857Z,48.20
2018-08-16T16:41:11.498Z,48.30
2018-08-16T16:43:40.150Z,48.10
2018-08-16T16:46:08.820Z,48.90
2018-08-16T16:48:37.540Z,49.20
2018-08-16T16:51:06.246Z,49.60
2018-08-16T16:53:34.905Z,49.40
2018-08-16T16:56:03.550Z,50.40
2018-08-16T16:58:32.222Z,49.50
2018-08-16T17:02:37.228Z,49.60
2018-08-16T17:05:06.190Z,50.40
2018-08-16T17:07:34.860Z,51.10
2018-08-16T17:10:03.564Z,51.30
2018-08-16T17:12:38.901Z,51.50
2018-08-16T17:15:07.998Z,51.30
2018-08-16T17:17:36.961Z,51.70
2018-08-16T17:20:06.257Z,52.60
2018-08-16T17:22:35.214Z,52.80
2018-08-16T17:25:03.988Z,53.70
2018-08-16T17:27:32.634Z,54.10
2018-08-16T17:30:01.293Z,54.50
2018-08-16T17:32:29.993Z,55.40
2018-08-16T17:34:58.708Z,55.40
2018-08-16T17:37:27.317Z,55.30
2018-08-16T17:39:56.010Z,56.10
2018-08-16T17:42:24.696Z,56.20
2018-08-16T17:44:53.352Z,56.50
2018-08-16T17:47:22.036Z,56.80
2018-08-16T17:49:50.699Z,57.40
2018-08-16T17:52:19.413Z,58.10
2018-08-16T17:54:48.020Z,58.90
2018-08-16T17:57:16.676Z,60.80
2018-08-16T17:59:45.358Z,61.40
2018-08-16T18:02:14.021Z,61.10
2018-08-16T18:04:42.658Z,62.30
2018-08-16T18:07:11.302Z,64.00
2018-08-16T18:09:40.013Z,63.80
2018-08-16T18:12:08.694Z,66.30
2018-08-16T18:14:37.338Z,64.80
2018-08-16T18:17:05.949Z,67.10
2018-08-16T18:19:34.695Z,65.50
2018-08-16T18:22:03.362Z,65.80
2018-08-16T18:24:32.022Z,65.60
2018-08-16T18:27:00.686Z,66.20
2018-08-16T18:29:29.310Z,66.60
2018-08-16T18:31:57.976Z,68.60
2018-08-16T18:34:26.654Z,70.20
2018-08-16T18:36:55.353Z,69.60
2018-08-16T18:39:24.025Z,70.60
2018-08-16T18:41:52.693Z,70.50
2018-08-16T18:44:21.337Z,72.20
2018-08-16T18:46:49.929Z,72.20
2018-08-16T18:49:18.676Z,73.80
2018-08-16T18:51:47.318Z,75.60
2018-08-16T18:54:15.996Z,76.50
2018-08-16T18:56:44.659Z,77.20
2018-08-16T18:59:13.622Z,76.60
2018-08-16T19:01:42.316Z,77.40
2018-08-16T19:04:10.949Z,76.80
2018-08-16T19:06:39.694Z,77.20
2018-08-16T19:09:08.646Z,77.90
2018-08-16T19:11:37.290Z,78.70
2018-08-16T19:14:06.427Z,79.40
2018-08-16T19:16:35.084Z,80.60
2018-08-16T19:19:03.779Z,81.70
2018-08-16T19:21:32.435Z,81.30
2018-08-16T19:24:01.044Z,80.70
2018-08-16T19:26:29.837Z,82.30
2018-08-16T19:28:58.517Z,83.20
2018-08-16T19:31:27.150Z,84.20
2018-08-16T19:33:55.815Z,85.10
2018-08-16T19:36:24.478Z,85.60
2018-08-16T19:38:53.120Z,86.20
2018-08-16T19:41:21.860Z,86.90
2018-08-16T19:43:50.418Z,87.00
2018-08-16T19:46:19.115Z,87.40
2018-08-16T19:48:47.820Z,88.50
2018-08-16T19:51:16.493Z,87.10
2018-08-16T19:53:45.247Z,87.30
2018-08-16T19:56:13.993Z,86.20
2018-08-16T19:58:42.639Z,86.70
2018-08-16T20:01:11.421Z,87.30
2018-08-16T20:03:40.039Z,88.00
2018-08-16T20:06:08.680Z,87.50
2018-08-16T20:08:37.547Z,87.60
2018-08-16T20:11:06.636Z,88.40
2018-08-16T20:13:35.534Z,88.40
2018-08-16T20:16:04.257Z,89.40
2018-08-16T20:18:33.158Z,90.00
2018-08-16T20:21:01.789Z,90.20
2018-08-16T20:23:30.637Z,90.40
2018-08-16T20:25:59.305Z,90.70
2018-08-16T20:28:28.106Z,90.80
2018-08-16T20:30:56.795Z,91.30
2018-08-16T20:33:25.472Z,91.20
2018-08-16T20:35:54.299Z,91.30
2018-08-16T20:38:23.418Z,91.60
2018-08-16T20:40:52.098Z,91.80
2018-08-16T20:43:20.774Z,92.00
2018-08-16T20:45:49.805Z,92.10
2018-08-16T20:48:18.745Z,92.10
2018-08-16T20:50:47.401Z,92.50
2018-08-16T20:53:16.018Z,92.70
2018-08-16T20:55:44.663Z,92.90
2018-08-16T20:58:13.394Z,92.90
2018-08-16T21:00:42.172Z,93.00
2018-08-16T21:03:11.053Z,93.00
2018-08-16T21:05:45.641Z,92.50
2018-08-16T21:08:14.329Z,92.80
2018-08-16T21:10:42.996Z,92.80
2018-08-16T21:13:11.611Z,92.80
2018-08-16T21:15:40.353Z,92.90
2018-08-16T21:18:09.025Z,93.00
2018-08-16T21:20:37.637Z,93.10
2018-08-16T21:23:06.819Z,93.40
2018-08-16T21:25:35.487Z,94.20
2018-08-16T21:28:04.195Z,94.40
2018-08-16T21:30:32.864Z,94.60
2018-08-16T21:33:01.570Z,94.20
2018-08-16T21:35:30.176Z,94.70
2018-08-16T21:37:58.850Z,94.60
2018-08-16T21:40:27.669Z,94.50
2018-08-16T21:42:56.280Z,94.70
2018-08-16T21:45:24.913Z,94.70
2018-08-16T21:47:53.600Z,95.20
2018-08-16T21:50:22.229Z,95.40
2018-08-16T21:52:50.909Z,95.90
2018-08-16T21:55:19.550Z,95.50
2018-08-16T21:57:48.237Z,95.70
2018-08-16T22:00:55.385Z,96.00
2018-08-16T22:03:25.402Z,96.20
2018-08-16T22:06:01.015Z,96.00
2018-08-16T22:08:42.691Z,95.40
2018-08-16T22:11:11.613Z,95.10
2018-08-16T22:13:40.613Z,95.30
2018-08-16T22:16:09.340Z,95.40
2018-08-16T22:18:44.654Z,95.70
2018-08-16T22:21:13.340Z,96.40
2018-08-16T22:23:42.013Z,96.30
2018-08-16T22:26:10.764Z,96.40
2018-08-16T22:28:39.385Z,96.40
2018-08-16T22:31:08.108Z,96.20
2018-08-16T22:33:36.922Z,95.80
2018-08-16T22:36:15.280Z,96.10
2018-08-16T22:38:43.917Z,96.40
2018-08-16T22:41:12.567Z,96.30
2018-08-16T22:43:41.171Z,96.20
2018-08-16T22:46:09.839Z,95.90
2018-08-16T22:48:38.456Z,96.00
2018-08-16T22:51:07.108Z,96.50
2018-08-16T22:53:35.875Z,96.90
2018-08-16T22:56:04.625Z,97.10
2018-08-16T22:58:33.289Z,97.30
2018-08-16T23:01:02.020Z,96.90
2018-08-16T23:03:30.900Z,96.70
2018-08-16T23:05:59.590Z,96.80
2018-08-16T23:08:28.284Z,96.90
2018-08-16T23:10:56.951Z,97.10
2018-08-16T23:13:25.631Z,97.10
2018-08-16T23:15:54.260Z,97.40
2018-08-16T23:18:22.853Z,97.40
2018-08-16T23:20:51.501Z,97.40
2018-08-16T23:23:20.101Z,97.30
2018-08-16T23:25:48.972Z,97.30
2018-08-16T23:28:17.617Z,97.50
2018-08-16T23:30:46.266Z,97.40
2018-08-16T23:33:14.886Z,97.20
2018-08-16T23:35:43.558Z,97.10
2018-08-16T23:38:12.241Z,97.10
2018-08-16T23:40:40.895Z,97.40
2018-08-16T23:43:09.512Z,97.40
2018-08-16T23:45:38.196Z,97.40
2018-08-16T23:48:17.941Z,97.70
2018-08-16T23:50:46.560Z,98.00
2018-08-16T23:53:15.258Z,98.60
2018-08-16T23:55:43.890Z,98.30
2018-08-16T23:58:12.650Z,99.10
